sensor_id;sensor_type;location;lat;lon;timestamp;pressure;altitude;pressure_sealevel;temperature;humidity
59487;BME280;45298;54.918;73.504;2023-03-01T00:00:05;99075.97;;;-1.24;91.37
59487;BME280;45298;54.918;73.504;2023-03-01T00:02:37;99061.97;;;-1.19;91.15
59487;BME280;45298;54.918;73.504;2023-03-01T00:05:06;99022.78;;;-1.43;91.41
59487;BME280;45298;54.918;73.504;2023-03-01T00:07:35;99108.03;;;-0.92;91.40
59487;BME280;45298;54.918;73.504;2023-03-01T00:10:04;99068.72;;;-1.12;91.72
59487;BME280;45298;54.918;73.504;2023-03-01T00:12:33;99075.63;;;-1.11;91.44
59487;BME280;45298;54.918;73.504;2023-03-01T00:15:02;99080.63;;;-1.05;91.22
59487;BME280;45298;54.918;73.504;2023-03-01T00:17:33;99082.25;;;-1.01;91.33
59487;BME280;45298;54.918;73.504;2023-03-01T00:20:02;99058.41;;;-1.15;91.53
59487;BME280;45298;54.918;73.504;2023-03-01T00:22:31;99066.16;;;-1.14;91.63
59487;BME280;45298;54.918;73.504;2023-03-01T00:25:00;99082.25;;;-1.01;91.62
59487;BME280;45298;54.918;73.504;2023-03-01T00:27:29;99076.22;;;-1.03;91.27
59487;BME280;45298;54.918;73.504;2023-03-01T00:29:57;99097.50;;;-0.88;91.16
59487;BME280;45298;54.918;73.504;2023-03-01T00:32:26;99088.91;;;-0.90;91.25
59487;BME280;45298;54.918;73.504;2023-03-01T00:34:55;99090.47;;;-0.86;91.12
59487;BME280;45298;54.918;73.504;2023-03-01T00:37:25;99056.31;;;-1.04;90.82
59487;BME280;45298;54.918;73.504;2023-03-01T00:39:56;99089.72;;;-0.88;91.11
59487;BME280;45298;54.918;73.504;2023-03-01T00:42:25;99080.94;;;-0.86;91.32
59487;BME280;45298;54.918;73.504;2023-03-01T00:44:54;99062.25;;;-0.99;91.00
59487;BME280;45298;54.918;73.504;2023-03-01T00:47:23;99058.72;;;-0.98;91.19
59487;BME280;45298;54.918;73.504;2023-03-01T00:49:52;99066.41;;;-0.93;90.83
59487;BME280;45298;54.918;73.504;2023-03-01T00:52:21;99054.34;;;-0.96;91.20
59487;BME280;45298;54.918;73.504;2023-03-01T00:54:52;99088.59;;;-0.81;91.08
59487;BME280;45298;54.918;73.504;2023-03-01T00:57:21;99049.13;;;-0.96;90.90
59487;BME280;45298;54.918;73.504;2023-03-01T00:59:50;99076.44;;;-0.81;91.47
59487;BME280;45298;54.918;73.504;2023-03-01T01:02:20;99078.19;;;-0.81;91.43
59487;BME280;45298;54.918;73.504;2023-03-01T01:04:49;99069.66;;;-0.86;91.08
59487;BME280;45298;54.918;73.504;2023-03-01T01:07:18;99042.22;;;-0.97;91.26
59487;BME280;45298;54.918;73.504;2023-03-01T01:09:48;99054.25;;;-0.93;91.34
59487;BME280;45298;54.918;73.504;2023-03-01T01:12:17;99078.03;;;-0.77;91.80
59487;BME280;45298;54.918;73.504;2023-03-01T01:14:45;99037.84;;;-0.96;91.31
59487;BME280;45298;54.918;73.504;2023-03-01T01:17:14;99034.34;;;-0.95;91.15
59487;BME280;45298;54.918;73.504;2023-03-01T01:19:43;99061.72;;;-0.82;91.72
59487;BME280;45298;54.918;73.504;2023-03-01T01:22:11;98951.88;;;-1.48;91.21
59487;BME280;45298;54.918;73.504;2023-03-01T01:24:40;99050.53;;;-0.85;91.76
59487;BME280;45298;54.918;73.504;2023-03-01T01:27:09;99051.41;;;-0.85;91.90
59487;BME280;45298;54.918;73.504;2023-03-01T01:29:38;99042.03;;;-0.90;91.94
59487;BME280;45298;54.918;73.504;2023-03-01T01:32:06;99036.88;;;-0.92;91.88
59487;BME280;45298;54.918;73.504;2023-03-01T01:34:35;99057.41;;;-0.83;92.00
59487;BME280;45298;54.918;73.504;2023-03-01T01:37:04;99067.59;;;-0.75;91.59
59487;BME280;45298;54.918;73.504;2023-03-01T01:39:36;99063.47;;;-0.82;91.79
59487;BME280;45298;54.918;73.504;2023-03-01T01:42:05;99060.69;;;-0.76;92.06
59487;BME280;45298;54.918;73.504;2023-03-01T01:44:34;98999.13;;;-1.07;91.72
59487;BME280;45298;54.918;73.504;2023-03-01T01:47:12;99045.22;;;-0.81;92.19
59487;BME280;45298;54.918;73.504;2023-03-01T01:49:48;99038.28;;;-0.82;91.68
59487;BME280;45298;54.918;73.504;2023-03-01T01:52:25;99026.25;;;-0.86;92.04
59487;BME280;45298;54.918;73.504;2023-03-01T01:55:11;99020.25;;;-0.88;92.02
59487;BME280;45298;54.918;73.504;2023-03-01T01:57:49;99021.09;;;-0.87;91.97
59487;BME280;45298;54.918;73.504;2023-03-01T02:00:22;99030.22;;;-0.74;92.16
59487;BME280;45298;54.918;73.504;2023-03-01T02:02:57;99014.88;;;-0.82;92.13
59487;BME280;45298;54.918;73.504;2023-03-01T02:08:08;99021.31;;;-0.67;92.05
59487;BME280;45298;54.918;73.504;2023-03-01T02:10:40;99022.09;;;-0.65;92.26
59487;BME280;45298;54.918;73.504;2023-03-01T02:13:10;99018.03;;;-0.72;92.41
59487;BME280;45298;54.918;73.504;2023-03-01T02:15:40;99000.78;;;-0.76;92.39
59487;BME280;45298;54.918;73.504;2023-03-01T02:18:14;99010.88;;;-0.67;92.19
59487;BME280;45298;54.918;73.504;2023-03-01T02:23:38;99012.47;;;-0.61;92.63
59487;BME280;45298;54.918;73.504;2023-03-01T02:26:25;98922.22;;;-1.16;92.16
59487;BME280;45298;54.918;73.504;2023-03-01T02:28:59;99016.63;;;-0.55;92.28
59487;BME280;45298;54.918;73.504;2023-03-01T02:31:28;99018.31;;;-0.54;92.52
59487;BME280;45298;54.918;73.504;2023-03-01T02:34:16;98996.97;;;-0.66;92.28
59487;BME280;45298;54.918;73.504;2023-03-01T02:37:14;99025.88;;;-0.47;92.54
59487;BME280;45298;54.918;73.504;2023-03-01T02:39:53;98942.31;;;-0.93;92.32
59487;BME280;45298;54.918;73.504;2023-03-01T02:42:33;99021.31;;;-0.40;92.19
59487;BME280;45298;54.918;73.504;2023-03-01T02:45:04;99007.63;;;-0.47;92.48
59487;BME280;45298;54.918;73.504;2023-03-01T02:47:36;99008.47;;;-0.46;92.90
59487;BME280;45298;54.918;73.504;2023-03-01T02:53:23;99006.53;;;-0.39;92.71
59487;BME280;45298;54.918;73.504;2023-03-01T02:55:56;98933.34;;;-0.84;92.23
59487;BME280;45298;54.918;73.504;2023-03-01T02:58:25;99002.22;;;-0.40;92.87
59487;BME280;45298;54.918;73.504;2023-03-01T03:00:55;98991.00;;;-0.42;92.56
59487;BME280;45298;54.918;73.504;2023-03-01T03:03:25;98987.53;;;-0.43;92.99
59487;BME280;45298;54.918;73.504;2023-03-01T03:05:54;98921.88;;;-0.78;93.06
59487;BME280;45298;54.918;73.504;2023-03-01T03:08:23;98986.44;;;-0.36;93.27
59487;BME280;45298;54.918;73.504;2023-03-01T03:10:52;98991.44;;;-0.29;93.29
59487;BME280;45298;54.918;73.504;2023-03-01T03:13:21;98971.75;;;-0.38;93.02
59487;BME280;45298;54.918;73.504;2023-03-01T03:15:50;98985.25;;;-0.27;93.21
59487;BME280;45298;54.918;73.504;2023-03-01T03:18:19;98981.75;;;-0.26;93.42
59487;BME280;45298;54.918;73.504;2023-03-01T03:20:48;98942.31;;;-0.40;93.02
59487;BME280;45298;54.918;73.504;2023-03-01T03:23:21;98953.00;;;-0.23;93.50
59487;BME280;45298;54.918;73.504;2023-03-01T03:25:51;98957.44;;;-0.26;93.58
59487;BME280;45298;54.918;73.504;2023-03-01T03:28:20;98985.44;;;-0.08;93.96
59487;BME280;45298;54.918;73.504;2023-03-01T03:30:51;98953.63;;;-0.16;93.92
59487;BME280;45298;54.918;73.504;2023-03-01T03:33:20;98894.56;;;-0.41;94.00
59487;BME280;45298;54.918;73.504;2023-03-01T03:35:50;98956.53;;;0.00;93.71
59487;BME280;45298;54.918;73.504;2023-03-01T03:38:19;98941.03;;;-0.05;93.75
59487;BME280;45298;54.918;73.504;2023-03-01T03:40:54;98960.31;;;0.15;93.88
59487;BME280;45298;54.918;73.504;2023-03-01T03:43:31;98964.22;;;0.27;93.46
59487;BME280;45298;54.918;73.504;2023-03-01T03:46:00;98960.53;;;0.33;93.93
59487;BME280;45298;54.918;73.504;2023-03-01T03:48:35;98924.38;;;0.23;93.88
59487;BME280;45298;54.918;73.504;2023-03-01T03:51:04;98958.31;;;0.45;93.74
59487;BME280;45298;54.918;73.504;2023-03-01T03:53:36;98959.00;;;0.51;93.91
59487;BME280;45298;54.918;73.504;2023-03-01T03:56:05;98945.16;;;0.49;93.66
59487;BME280;45298;54.918;73.504;2023-03-01T03:58:36;98929.81;;;0.41;93.77
59487;BME280;45298;54.918;73.504;2023-03-01T04:01:05;98927.13;;;0.42;93.69
59487;BME280;45298;54.918;73.504;2023-03-01T04:03:34;98922.88;;;0.40;93.63
59487;BME280;45298;54.918;73.504;2023-03-01T04:06:03;98909.16;;;0.35;93.51
59487;BME280;45298;54.918;73.504;2023-03-01T04:08:32;98915.63;;;0.48;93.77
59487;BME280;45298;54.918;73.504;2023-03-01T04:11:02;98938.44;;;0.65;93.38
59487;BME280;45298;54.918;73.504;2023-03-01T04:13:53;98901.72;;;0.48;93.28
59487;BME280;45298;54.918;73.504;2023-03-01T04:16:23;98949.34;;;0.75;93.48
59487;BME280;45298;54.918;73.504;2023-03-01T04:18:52;98927.03;;;0.68;93.21
59487;BME280;45298;54.918;73.504;2023-03-01T04:21:21;98885.88;;;0.52;93.24
59487;BME280;45298;54.918;73.504;2023-03-01T04:23:53;98929.81;;;0.85;93.08
59487;BME280;45298;54.918;73.504;2023-03-01T04:26:21;98891.22;;;0.71;92.87
59487;BME280;45298;54.918;73.504;2023-03-01T04:28:50;98889.41;;;0.73;92.92
59487;BME280;45298;54.918;73.504;2023-03-01T04:31:20;98919.78;;;0.97;92.77
59487;BME280;45298;54.918;73.504;2023-03-01T04:33:54;98922.03;;;1.06;92.66
59487;BME280;45298;54.918;73.504;2023-03-01T04:36:25;98918.75;;;1.01;92.60
59487;BME280;45298;54.918;73.504;2023-03-01T04:38:54;98900.59;;;0.98;92.47
59487;BME280;45298;54.918;73.504;2023-03-01T04:41:24;98894.59;;;0.96;92.46
59487;BME280;45298;54.918;73.504;2023-03-01T04:43:53;98903.75;;;1.06;92.38
59487;BME280;45298;54.918;73.504;2023-03-01T04:46:22;98848.78;;;0.66;92.31
59487;BME280;45298;54.918;73.504;2023-03-01T04:48:51;98902.19;;;1.02;92.33
59487;BME280;45298;54.918;73.504;2023-03-01T04:51:19;98880.50;;;1.00;92.15
59487;BME280;45298;54.918;73.504;2023-03-01T04:53:48;98848.22;;;0.80;92.37
59487;BME280;45298;54.918;73.504;2023-03-01T04:56:17;98792.06;;;0.49;92.02
59487;BME280;45298;54.918;73.504;2023-03-01T04:58:46;98873.47;;;1.02;92.13
59487;BME280;45298;54.918;73.504;2023-03-01T05:01:17;98888.72;;;1.11;92.22
59487;BME280;45298;54.918;73.504;2023-03-01T05:03:51;98896.06;;;1.24;91.90
59487;BME280;45298;54.918;73.504;2023-03-01T05:06:20;98892.66;;;1.22;92.02
59487;BME280;45298;54.918;73.504;2023-03-01T05:08:49;98862.44;;;1.16;91.91
59487;BME280;45298;54.918;73.504;2023-03-01T05:11:18;98863.16;;;1.19;91.62
59487;BME280;45298;54.918;73.504;2023-03-01T05:13:47;98817.25;;;0.93;91.31
59487;BME280;45298;54.918;73.504;2023-03-01T05:16:15;98850.22;;;1.16;91.54
59487;BME280;45298;54.918;73.504;2023-03-01T05:18:47;98853.59;;;1.18;91.55
59487;BME280;45298;54.918;73.504;2023-03-01T05:21:18;98883.72;;;1.27;91.05
59487;BME280;45298;54.918;73.504;2023-03-01T05:23:47;98856.47;;;1.12;91.79
59487;BME280;45298;54.918;73.504;2023-03-01T05:26:18;98853.97;;;1.09;91.40
59487;BME280;45298;54.918;73.504;2023-03-01T05:28:55;98849.44;;;1.14;91.38
59487;BME280;45298;54.918;73.504;2023-03-01T05:31:28;98852.38;;;1.27;91.25
59487;BME280;45298;54.918;73.504;2023-03-01T05:33:58;98871.63;;;1.45;91.44
59487;BME280;45298;54.918;73.504;2023-03-01T05:36:27;98869.66;;;1.50;91.11
59487;BME280;45298;54.918;73.504;2023-03-01T05:38:56;98827.06;;;1.28;90.79
59487;BME280;45298;54.918;73.504;2023-03-01T05:41:25;98824.47;;;1.28;90.57
59487;BME280;45298;54.918;73.504;2023-03-01T05:43:54;98882.44;;;1.57;90.26
59487;BME280;45298;54.918;73.504;2023-03-01T05:46:22;98860.75;;;1.55;90.13
59487;BME280;45298;54.918;73.504;2023-03-01T05:48:52;98863.47;;;1.72;89.86
59487;BME280;45298;54.918;73.504;2023-03-01T05:51:21;98868.00;;;1.88;89.45
59487;BME280;45298;54.918;73.504;2023-03-01T05:53:50;98865.91;;;1.96;89.00
59487;BME280;45298;54.918;73.504;2023-03-01T05:56:19;98845.25;;;1.90;89.00
59487;BME280;45298;54.918;73.504;2023-03-01T05:58:50;98865.47;;;1.86;88.54
59487;BME280;45298;54.918;73.504;2023-03-01T06:01:18;98856.06;;;1.63;89.28
59487;BME280;45298;54.918;73.504;2023-03-01T06:03:47;98853.97;;;1.50;89.44
59487;BME280;45298;54.918;73.504;2023-03-01T06:06:16;98849.16;;;1.41;89.33
59487;BME280;45298;54.918;73.504;2023-03-01T06:08:45;98749.88;;;0.81;89.41
59487;BME280;45298;54.918;73.504;2023-03-01T06:11:13;98849.28;;;1.38;89.88
59487;BME280;45298;54.918;73.504;2023-03-01T06:13:43;98817.28;;;1.12;89.62
59487;BME280;45298;54.918;73.504;2023-03-01T06:16:14;98826.13;;;1.30;89.63
59487;BME280;45298;54.918;73.504;2023-03-01T06:18:43;98844.97;;;1.37;89.73
59487;BME280;45298;54.918;73.504;2023-03-01T06:21:13;98822.84;;;1.25;89.70
59487;BME280;45298;54.918;73.504;2023-03-01T06:23:41;98843.06;;;1.41;89.46
59487;BME280;45298;54.918;73.504;2023-03-01T06:26:10;98838.50;;;1.46;89.25
59487;BME280;45298;54.918;73.504;2023-03-01T06:28:39;98838.25;;;1.52;89.29
59487;BME280;45298;54.918;73.504;2023-03-01T06:31:07;98855.63;;;1.72;88.91
59487;BME280;45298;54.918;73.504;2023-03-01T06:33:37;98825.09;;;1.54;88.97
59487;BME280;45298;54.918;73.504;2023-03-01T06:36:08;98846.38;;;1.65;88.44
59487;BME280;45298;54.918;73.504;2023-03-01T06:38:38;98849.13;;;1.81;88.80
59487;BME280;45298;54.918;73.504;2023-03-01T06:41:11;98783.19;;;1.36;88.39
59487;BME280;45298;54.918;73.504;2023-03-01T06:43:39;98822.56;;;1.52;88.59
59487;BME280;45298;54.918;73.504;2023-03-01T06:46:08;98834.75;;;1.51;88.48
59487;BME280;45298;54.918;73.504;2023-03-01T06:48:37;98814.78;;;1.30;88.70
59487;BME280;45298;54.918;73.504;2023-03-01T06:51:06;98854.63;;;1.56;89.00
59487;BME280;45298;54.918;73.504;2023-03-01T06:53:35;98856.31;;;1.57;88.59
59487;BME280;45298;54.918;73.504;2023-03-01T06:56:04;98840.78;;;1.54;88.87
59487;BME280;45298;54.918;73.504;2023-03-01T06:58:32;98861.34;;;1.61;88.74
59487;BME280;45298;54.918;73.504;2023-03-01T07:01:06;98838.03;;;1.57;88.86
59487;BME280;45298;54.918;73.504;2023-03-01T07:03:34;98821.50;;;1.56;88.84
59487;BME280;45298;54.918;73.504;2023-03-01T07:06:03;98821.22;;;1.62;88.59
59487;BME280;45298;54.918;73.504;2023-03-01T07:08:32;98830.06;;;1.79;88.68
59487;BME280;45298;54.918;73.504;2023-03-01T07:11:01;98829.34;;;1.75;88.13
59487;BME280;45298;54.918;73.504;2023-03-01T07:13:33;98776.88;;;1.61;87.73
59487;BME280;45298;54.918;73.504;2023-03-01T07:16:02;98804.50;;;1.86;88.04
59487;BME280;45298;54.918;73.504;2023-03-01T07:18:31;98786.47;;;1.79;87.61
59487;BME280;45298;54.918;73.504;2023-03-01T07:21:05;98806.91;;;1.90;87.29
59487;BME280;45298;54.918;73.504;2023-03-01T07:23:34;98819.59;;;1.98;87.30
59487;BME280;45298;54.918;73.504;2023-03-01T07:26:03;98806.44;;;2.00;87.41
59487;BME280;45298;54.918;73.504;2023-03-01T07:28:32;98724.16;;;1.70;87.31
59487;BME280;45298;54.918;73.504;2023-03-01T07:31:06;98739.75;;;1.91;87.07
59487;BME280;45298;54.918;73.504;2023-03-01T07:33:35;98764.69;;;1.98;86.48
59487;BME280;45298;54.918;73.504;2023-03-01T07:36:04;98769.63;;;2.04;86.35
59487;BME280;45298;54.918;73.504;2023-03-01T07:38:34;98792.81;;;2.12;86.63
59487;BME280;45298;54.918;73.504;2023-03-01T07:41:03;98762.22;;;1.95;86.54
59487;BME280;45298;54.918;73.504;2023-03-01T07:43:33;98762.84;;;2.00;86.67
59487;BME280;45298;54.918;73.504;2023-03-01T07:46:04;98770.56;;;2.03;86.41
59487;BME280;45298;54.918;73.504;2023-03-01T07:48:33;98783.78;;;2.00;87.32
59487;BME280;45298;54.918;73.504;2023-03-01T07:51:04;98772.03;;;1.90;86.95
59487;BME280;45298;54.918;73.504;2023-03-01T07:53:34;98788.59;;;1.90;87.08
59487;BME280;45298;54.918;73.504;2023-03-01T07:56:12;98755.50;;;1.70;86.96
59487;BME280;45298;54.918;73.504;2023-03-01T07:58:43;98741.84;;;1.65;87.29
59487;BME280;45298;54.918;73.504;2023-03-01T08:01:14;98768.03;;;1.83;87.12
59487;BME280;45298;54.918;73.504;2023-03-01T08:03:44;98737.31;;;1.69;87.56
59487;BME280;45298;54.918;73.504;2023-03-01T08:06:16;98763.13;;;1.94;87.15
59487;BME280;45298;54.918;73.504;2023-03-01T08:08:44;98748.03;;;1.81;87.41
59487;BME280;45298;54.918;73.504;2023-03-01T08:11:14;98736.84;;;1.78;87.51
59487;BME280;45298;54.918;73.504;2023-03-01T08:13:44;98749.88;;;1.79;87.64
59487;BME280;45298;54.918;73.504;2023-03-01T08:16:18;98768.94;;;1.81;87.72
59487;BME280;45298;54.918;73.504;2023-03-01T08:18:49;98733.69;;;1.71;87.65
59487;BME280;45298;54.918;73.504;2023-03-01T08:21:18;98750.66;;;1.81;87.83
59487;BME280;45298;54.918;73.504;2023-03-01T08:23:47;98746.25;;;1.82;87.81
59487;BME280;45298;54.918;73.504;2023-03-01T08:26:18;98727.41;;;1.75;87.51
59487;BME280;45298;54.918;73.504;2023-03-01T08:28:49;98737.50;;;1.83;88.13
59487;BME280;45298;54.918;73.504;2023-03-01T08:31:21;98729.78;;;1.80;88.04
59487;BME280;45298;54.918;73.504;2023-03-01T08:33:52;98726.13;;;1.84;88.22
59487;BME280;45298;54.918;73.504;2023-03-01T08:36:29;98725.84;;;1.90;87.89
59487;BME280;45298;54.918;73.504;2023-03-01T08:39:16;98705.88;;;1.88;87.58
59487;BME280;45298;54.918;73.504;2023-03-01T08:41:47;98737.91;;;1.93;87.74
59487;BME280;45298;54.918;73.504;2023-03-01T08:44:16;98733.53;;;1.93;87.86
59487;BME280;45298;54.918;73.504;2023-03-01T08:46:45;98709.00;;;1.77;88.14
59487;BME280;45298;54.918;73.504;2023-03-01T08:49:16;98721.75;;;1.85;87.54
59487;BME280;45298;54.918;73.504;2023-03-01T08:51:46;98736.94;;;1.95;88.31
59487;BME280;45298;54.918;73.504;2023-03-01T08:54:20;98727.66;;;1.88;87.92
59487;BME280;45298;54.918;73.504;2023-03-01T08:56:49;98730.16;;;1.91;88.11
59487;BME280;45298;54.918;73.504;2023-03-01T08:59:18;98701.41;;;1.72;88.14
59487;BME280;45298;54.918;73.504;2023-03-01T09:01:47;98680.22;;;1.59;87.96
59487;BME280;45298;54.918;73.504;2023-03-01T09:04:16;98694.94;;;1.62;88.54
59487;BME280;45298;54.918;73.504;2023-03-01T09:06:45;98694.94;;;1.62;88.60
59487;BME280;45298;54.918;73.504;2023-03-01T09:09:16;98682.28;;;1.53;88.61
59487;BME280;45298;54.918;73.504;2023-03-01T09:11:45;98662.38;;;1.50;88.76
59487;BME280;45298;54.918;73.504;2023-03-01T09:14:14;98701.25;;;1.75;88.47
59487;BME280;45298;54.918;73.504;2023-03-01T09:16:43;98681.72;;;1.65;88.66
59487;BME280;45298;54.918;73.504;2023-03-01T09:19:12;98651.97;;;1.48;88.93
59487;BME280;45298;54.918;73.504;2023-03-01T09:21:41;98665.41;;;1.60;88.59
59487;BME280;45298;54.918;73.504;2023-03-01T09:24:21;98650.56;;;1.60;88.71
59487;BME280;45298;54.918;73.504;2023-03-01T09:26:53;98668.34;;;1.71;88.91
59487;BME280;45298;54.918;73.504;2023-03-01T09:29:23;98655.78;;;1.60;88.26
59487;BME280;45298;54.918;73.504;2023-03-01T09:31:52;98653.88;;;1.64;88.64
59487;BME280;45298;54.918;73.504;2023-03-01T09:34:23;98675.97;;;1.76;89.03
59487;BME280;45298;54.918;73.504;2023-03-01T09:36:52;98670.03;;;1.72;88.68
59487;BME280;45298;54.918;73.504;2023-03-01T09:39:20;98649.56;;;1.63;89.13
59487;BME280;45298;54.918;73.504;2023-03-01T09:42:00;98669.06;;;1.75;89.10
59487;BME280;45298;54.918;73.504;2023-03-01T09:44:49;98647.34;;;1.55;89.00
59487;BME280;45298;54.918;73.504;2023-03-01T09:47:29;98659.88;;;1.66;88.80
59487;BME280;45298;54.918;73.504;2023-03-01T09:53:00;98660.59;;;1.70;88.86
59487;BME280;45298;54.918;73.504;2023-03-01T09:58:32;98631.78;;;1.52;88.90
59487;BME280;45298;54.918;73.504;2023-03-01T10:01:35;98629.38;;;1.47;89.48
59487;BME280;45298;54.918;73.504;2023-03-01T10:09:43;98625.00;;;1.48;89.55
59487;BME280;45298;54.918;73.504;2023-03-01T10:12:24;98555.53;;;1.07;89.60
59487;BME280;45298;54.918;73.504;2023-03-01T10:15:05;98626.09;;;1.25;89.60
59487;BME280;45298;54.918;73.504;2023-03-01T10:17:51;98634.56;;;1.30;89.92
59487;BME280;45298;54.918;73.504;2023-03-01T10:20:39;98612.03;;;1.08;90.04
59487;BME280;45298;54.918;73.504;2023-03-01T10:23:11;98604.50;;;1.02;90.41
59487;BME280;45298;54.918;73.504;2023-03-01T10:28:26;98590.91;;;0.95;90.39
59487;BME280;45298;54.918;73.504;2023-03-01T10:30:57;98625.53;;;1.18;90.43
59487;BME280;45298;54.918;73.504;2023-03-01T10:33:32;98602.72;;;1.02;90.53
59487;BME280;45298;54.918;73.504;2023-03-01T10:36:02;98601.91;;;1.02;91.05
59487;BME280;45298;54.918;73.504;2023-03-01T10:38:48;98616.34;;;1.09;90.82
59487;BME280;45298;54.918;73.504;2023-03-01T10:41:18;98592.72;;;0.93;91.21
59487;BME280;45298;54.918;73.504;2023-03-01T10:43:53;98584.25;;;0.88;91.24
59487;BME280;45298;54.918;73.504;2023-03-01T10:46:33;98574.53;;;0.72;91.34
59487;BME280;45298;54.918;73.504;2023-03-01T10:49:15;98600.34;;;0.98;91.22
59487;BME280;45298;54.918;73.504;2023-03-01T10:51:49;98603.88;;;0.97;91.23
59487;BME280;45298;54.918;73.504;2023-03-01T10:54:26;98602.94;;;0.98;91.56
59487;BME280;45298;54.918;73.504;2023-03-01T10:56:58;98596.94;;;0.96;91.81
59487;BME280;45298;54.918;73.504;2023-03-01T10:59:31;98602.03;;;0.99;91.63
59487;BME280;45298;54.918;73.504;2023-03-01T11:02:23;98599.44;;;0.99;91.71
59487;BME280;45298;54.918;73.504;2023-03-01T11:04:59;98593.56;;;0.94;91.88
59487;BME280;45298;54.918;73.504;2023-03-01T11:07:29;98553.34;;;0.79;91.87
59487;BME280;45298;54.918;73.504;2023-03-01T11:09:58;98550.13;;;0.73;92.09
59487;BME280;45298;54.918;73.504;2023-03-01T11:12:27;98565.78;;;0.73;92.16
59487;BME280;45298;54.918;73.504;2023-03-01T11:14:57;98549.69;;;0.64;92.15
59487;BME280;45298;54.918;73.504;2023-03-01T11:17:30;98509.19;;;0.36;92.15
59487;BME280;45298;54.918;73.504;2023-03-01T11:22:53;98545.44;;;0.61;92.58
59487;BME280;45298;54.918;73.504;2023-03-01T11:25:35;98568.53;;;0.70;92.75
59487;BME280;45298;54.918;73.504;2023-03-01T11:28:09;98527.88;;;0.45;92.52
59487;BME280;45298;54.918;73.504;2023-03-01T11:30:57;98543.03;;;0.56;92.76
59487;BME280;45298;54.918;73.504;2023-03-01T11:38:36;98552.44;;;0.60;92.93
59487;BME280;45298;54.918;73.504;2023-03-01T11:41:18;98558.31;;;0.66;93.50
59487;BME280;45298;54.918;73.504;2023-03-01T11:44:25;98494.66;;;0.30;92.82
59487;BME280;45298;54.918;73.504;2023-03-01T11:49:53;98545.44;;;0.61;93.51
59487;BME280;45298;54.918;73.504;2023-03-01T12:06:23;98508.91;;;0.42;93.65
59487;BME280;45298;54.918;73.504;2023-03-01T12:09:22;98528.38;;;0.54;93.90
59487;BME280;45298;54.918;73.504;2023-03-01T12:39:27;98488.06;;;0.42;94.45
59487;BME280;45298;54.918;73.504;2023-03-01T12:44:55;98485.50;;;0.40;94.49
59487;BME280;45298;54.918;73.504;2023-03-01T12:48:00;98486.22;;;0.44;94.65
59487;BME280;45298;54.918;73.504;2023-03-01T12:50:49;98306.78;;;-0.63;94.34
59487;BME280;45298;54.918;73.504;2023-03-01T12:55:54;98450.53;;;0.25;94.91
59487;BME280;45298;54.918;73.504;2023-03-01T13:01:21;98478.41;;;0.44;94.92
59487;BME280;45298;54.918;73.504;2023-03-01T13:04:21;98481.00;;;0.44;94.95
59487;BME280;45298;54.918;73.504;2023-03-01T13:07:25;98476.91;;;0.38;94.97
59487;BME280;45298;54.918;73.504;2023-03-01T13:18:00;98491.72;;;0.38;95.52
59487;BME280;45298;54.918;73.504;2023-03-01T13:26:08;98484.75;;;0.38;95.27
59487;BME280;45298;54.918;73.504;2023-03-01T13:33:52;98470.97;;;0.35;95.23
59487;BME280;45298;54.918;73.504;2023-03-01T13:41:50;98479.34;;;0.41;95.50
59487;BME280;45298;54.918;73.504;2023-03-01T13:44:37;98481.13;;;0.41;95.46
59487;BME280;45298;54.918;73.504;2023-03-01T13:49:51;98463.88;;;0.38;95.59
59487;BME280;45298;54.918;73.504;2023-03-01T13:57:51;98469.56;;;0.47;95.34
59487;BME280;45298;54.918;73.504;2023-03-01T14:00:33;98461.69;;;0.48;95.36
59487;BME280;45298;54.918;73.504;2023-03-01T14:03:18;98442.94;;;0.40;95.49
59487;BME280;45298;54.918;73.504;2023-03-01T14:06:08;98464.50;;;0.43;95.62
59487;BME280;45298;54.918;73.504;2023-03-01T14:08:46;98419.25;;;0.25;95.28
59487;BME280;45298;54.918;73.504;2023-03-01T14:11:34;98444.19;;;0.50;95.70
59487;BME280;45298;54.918;73.504;2023-03-01T14:17:20;98427.28;;;0.40;95.63
59487;BME280;45298;54.918;73.504;2023-03-01T14:19:57;98435.78;;;0.43;95.36
59487;BME280;45298;54.918;73.504;2023-03-01T14:22:33;98426.59;;;0.36;95.27
59487;BME280;45298;54.918;73.504;2023-03-01T14:25:06;98389.06;;;0.20;95.15
59487;BME280;45298;54.918;73.504;2023-03-01T14:27:52;98422.56;;;0.48;94.88
59487;BME280;45298;54.918;73.504;2023-03-01T14:30:41;98416.56;;;0.46;95.42
59487;BME280;45298;54.918;73.504;2023-03-01T14:33:33;98398.13;;;0.49;95.23
59487;BME280;45298;54.918;73.504;2023-03-01T14:36:11;98393.69;;;0.51;95.32
59487;BME280;45298;54.918;73.504;2023-03-01T14:38:47;98349.91;;;0.21;95.03
59487;BME280;45298;54.918;73.504;2023-03-01T14:41:22;98395.25;;;0.55;95.11
59487;BME280;45298;54.918;73.504;2023-03-01T14:43:52;98382.56;;;0.48;94.85
59487;BME280;45298;54.918;73.504;2023-03-01T14:46:31;98376.81;;;0.41;95.11
59487;BME280;45298;54.918;73.504;2023-03-01T14:49:09;98333.06;;;0.28;94.62
59487;BME280;45298;54.918;73.504;2023-03-01T14:51:42;98384.81;;;0.55;94.94
59487;BME280;45298;54.918;73.504;2023-03-01T14:54:24;98385.69;;;0.56;94.88
59487;BME280;45298;54.918;73.504;2023-03-01T14:56:59;98360.69;;;0.50;94.67
59487;BME280;45298;54.918;73.504;2023-03-01T14:59:29;98354.75;;;0.48;94.67
59487;BME280;45298;54.918;73.504;2023-03-01T15:01:59;98329.31;;;0.34;94.71
59487;BME280;45298;54.918;73.504;2023-03-01T15:04:29;98384.44;;;0.63;94.38
59487;BME280;45298;54.918;73.504;2023-03-01T15:06:59;98348.53;;;0.51;94.52
59487;BME280;45298;54.918;73.504;2023-03-01T15:09:36;98367.03;;;0.64;94.50
59487;BME280;45298;54.918;73.504;2023-03-01T15:12:36;98365.88;;;0.69;94.33
59487;BME280;45298;54.918;73.504;2023-03-01T15:18:04;98341.38;;;0.54;94.25
59487;BME280;45298;54.918;73.504;2023-03-01T15:20:34;98356.28;;;0.70;93.88
59487;BME280;45298;54.918;73.504;2023-03-01T15:23:05;98357.16;;;0.70;93.83
59487;BME280;45298;54.918;73.504;2023-03-01T15:25:34;98339.41;;;0.59;93.82
59487;BME280;45298;54.918;73.504;2023-03-01T15:28:04;98291.03;;;0.35;93.90